Time;durP1;ratioP1;P1;durP2;ratioP2;P2;SDS_P1;SDS_P2;PMS_P1;PMS_P2;Temp;Humidity;BMP_temperature;BMP_pressure;BME280_temperature;BME280_humidity;BME280_pressure;Samples;Min_cycle;Max_cycle;Signal;HPM_P1;HPM_P2
2024/03/06 18:19:12;;;;;;;;;5.25;5.25;;;;;;;;5163608;27;14374;-69
2024/03/06 18:21:44;;;;;;;;;8.50;8.50;;;;;;;;5165658;27;11389;-68
2024/03/06 18:24:13;;;;;;;;;9.00;9.00;;;;;;;;5148774;27;9697;-68
2024/03/06 18:26:39;;;;;;;;;6.75;5.00;;;;;;;;5148613;27;11527;-67
2024/03/06 18:29:05;;;;;;;;;6.75;6.75;;;;;;;;5148513;27;11500;-70
2024/03/06 18:31:30;;;;;;;;;7.00;6.75;;;;;;;;5130107;27;8778;-67
2024/03/06 18:33:55;;;;;;;;;6.50;6.50;;;;;;;;5147166;27;9653;-68
2024/03/06 18:36:21;;;;;;;;;11.75;10.25;;;;;;;;5144810;27;8773;-69
2024/03/06 18:38:46;;;;;;;;;14.25;7.75;;;;;;;;5144807;27;8814;-67
2024/03/06 18:41:11;;;;;;;;;11.00;10.50;;;;;;;;5148139;27;9491;-67
2024/03/06 18:43:36;;;;;;;;;14.25;12.00;;;;;;;;5148648;27;8774;-70
2024/03/06 18:46:01;;;;;;;;;7.50;7.00;;;;;;;;5142280;27;8785;-71
2024/03/06 18:48:27;;;;;;;;;11.00;8.00;;;;;;;;5148088;27;9522;-68
2024/03/06 18:50:52;;;;;;;;;9.50;8.75;;;;;;;;5147872;27;8829;-69
2024/03/06 18:53:17;;;;;;;;;8.50;7.25;;;;;;;;5127156;27;8835;-71
2024/03/06 18:55:43;;;;;;;;;10.25;9.75;;;;;;;;5148669;27;8866;-69
2024/03/06 18:58:08;;;;;;;;;9.00;9.00;;;;;;;;5148131;27;8806;-67
2024/03/06 19:00:34;;;;;;;;;10.00;10.00;;;;;;;;5148533;27;8816;-69
2024/03/06 19:02:59;;;;;;;;;8.75;7.25;;;;;;;;5148664;27;8808;-69
2024/03/06 19:05:24;;;;;;;;;7.00;7.00;;;;;;;;5148151;27;11383;-68
2024/03/06 19:07:50;;;;;;;;;10.00;7.00;;;;;;;;5141722;27;8805;-70
2024/03/06 19:10:15;;;;;;;;;9.75;8.50;;;;;;;;5148691;27;8808;-68
2024/03/06 19:12:43;;;;;;;;;9.00;8.50;;;;;;;;5148733;27;8800;-69
2024/03/06 19:15:09;;;;;;;;;14.50;9.75;;;;;;;;5148578;27;8805;-72
2024/03/06 19:17:35;;;;;;;;;12.50;10.00;;;;;;;;5129612;27;11464;-69
2024/03/06 19:20:00;;;;;;;;;10.25;10.25;;;;;;;;5148379;27;8797;-68
2024/03/06 19:22:25;;;;;;;;;10.25;10.25;;;;;;;;5147090;27;8823;-69
2024/03/06 19:24:51;;;;;;;;;18.50;13.75;;;;;;;;5148205;27;8773;-67
2024/03/06 19:27:20;;;;;;;;;13.25;12.50;;;;;;;;5147243;27;8836;-68
2024/03/06 19:29:45;;;;;;;;;14.25;13.50;;;;;;;;5119851;27;8804;-69
2024/03/06 19:32:11;;;;;;;;;12.00;10.75;;;;;;;;5133454;27;11417;-68
2024/03/06 19:34:36;;;;;;;;;16.75;14.00;;;;;;;;5133828;27;8778;-70
2024/03/06 19:37:01;;;;;;;;;19.00;16.25;;;;;;;;5133395;27;8796;-69
2024/03/06 19:39:26;;;;;;;;;14.50;14.50;;;;;;;;5113189;27;8789;-68
2024/03/06 19:41:53;;;;;;;;;18.75;17.25;;;;;;;;5133420;27;8770;-68
2024/03/06 19:44:19;;;;;;;;;22.00;19.75;;;;;;;;5133707;27;8854;-68
2024/03/06 19:46:46;;;;;;;;;22.75;21.00;;;;;;;;5133278;27;11456;-69
2024/03/06 19:49:11;;;;;;;;;24.50;22.75;;;;;;;;5133342;27;11427;-69
2024/03/06 19:51:36;;;;;;;;;18.50;17.25;;;;;;;;5132622;27;11467;-69
2024/03/06 19:54:01;;;;;;;;;32.50;20.50;;;;;;;;5133259;27;8762;-69
2024/03/06 19:56:28;;;;;;;;;26.50;21.25;;;;;;;;5133936;27;8777;-68
2024/03/06 19:58:53;;;;;;;;;27.00;25.50;;;;;;;;5132938;27;8805;-68
2024/03/06 20:01:19;;;;;;;;;32.00;32.00;;;;;;;;5132292;27;11469;-71
2024/03/06 20:03:44;;;;;;;;;54.00;44.00;;;;;;;;5129693;27;8802;-71
2024/03/06 20:06:09;;;;;;;;;42.00;38.00;;;;;;;;5133666;27;8812;-71
2024/03/06 20:08:34;;;;;;;;;46.67;38.67;;;;;;;;5133607;27;8855;-71
2024/03/06 20:10:59;;;;;;;;;42.00;38.00;;;;;;;;5133646;27;9523;-69
2024/03/06 20:13:25;;;;;;;;;44.67;38.67;;;;;;;;5133525;27;8904;-71
2024/03/06 20:15:51;;;;;;;;;31.50;28.50;;;;;;;;5135227;27;8834;-71
2024/03/06 20:18:16;;;;;;;;;23.75;21.25;;;;;;;;5134985;27;8852;-72
2024/03/06 20:20:42;;;;;;;;;24.00;23.25;;;;;;;;5132342;27;11453;-69
2024/03/06 20:23:09;;;;;;;;;21.50;20.25;;;;;;;;5132797;27;8796;-69
2024/03/06 20:25:35;;;;;;;;;23.50;20.25;;;;;;;;5121279;27;8767;-70
2024/03/06 20:28:00;;;;;;;;;26.00;23.75;;;;;;;;5123084;27;11498;-71
2024/03/06 20:30:25;;;;;;;;;33.33;31.00;;;;;;;;5122262;27;8771;-73
2024/03/06 20:32:51;;;;;;;;;44.00;38.33;;;;;;;;5121641;27;8843;-70
2024/03/06 20:35:20;;;;;;;;;38.67;35.67;;;;;;;;5131729;27;9606;-70
2024/03/06 20:37:45;;;;;;;;;40.33;32.33;;;;;;;;5132768;27;8797;-70
2024/03/06 20:40:11;;;;;;;;;25.00;24.67;;;;;;;;5132123;27;8782;-70
2024/03/06 20:42:36;;;;;;;;;24.75;21.50;;;;;;;;5115194;28;9506;-70
2024/03/06 20:45:02;;;;;;;;;33.33;27.67;;;;;;;;5094110;28;8796;-70
2024/03/06 20:47:27;;;;;;;;;24.00;24.00;;;;;;;;5096170;27;9523;-70
2024/03/06 20:49:52;;;;;;;;;24.00;24.00;;;;;;;;5114118;27;8797;-70
2024/03/06 20:52:18;;;;;;;;;22.00;19.00;;;;;;;;5132839;27;8940;-70
2024/03/06 20:54:43;;;;;;;;;23.25;21.25;;;;;;;;5132728;27;8790;-70
2024/03/06 20:57:09;;;;;;;;;23.67;22.33;;;;;;;;5132423;27;9507;-70
2024/03/06 20:59:34;;;;;;;;;20.75;20.75;;;;;;;;5132733;27;8792;-70
2024/03/06 21:02:02;;;;;;;;;20.50;19.25;;;;;;;;5132127;27;11554;-70
2024/03/06 21:04:27;;;;;;;;;20.00;18.50;;;;;;;;5132459;27;8846;-72
2024/03/06 21:06:53;;;;;;;;;23.50;19.75;;;;;;;;5132409;27;11430;-72
2024/03/06 21:09:18;;;;;;;;;24.00;21.33;;;;;;;;5132245;27;9468;-74
2024/03/06 21:11:43;;;;;;;;;14.00;11.33;;;;;;;;5132437;27;8777;-74
2024/03/06 21:14:08;;;;;;;;;19.50;17.25;;;;;;;;5132287;27;8777;-74
2024/03/06 21:16:34;;;;;;;;;20.33;20.33;;;;;;;;5131996;27;8781;-74
2024/03/06 21:18:59;;;;;;;;;18.00;17.00;;;;;;;;5131864;27;8889;-74
2024/03/06 21:21:24;;;;;;;;;18.25;14.75;;;;;;;;5132339;27;8770;-72
2024/03/06 21:23:50;;;;;;;;;11.75;11.75;;;;;;;;5132274;27;8781;-75
2024/03/06 21:26:15;;;;;;;;;14.00;12.00;;;;;;;;5132135;27;8778;-75
2024/03/06 21:28:41;;;;;;;;;12.50;12.50;;;;;;;;5131911;27;9533;-75
2024/03/06 21:31:07;;;;;;;;;12.75;11.50;;;;;;;;5131893;27;8848;-75
2024/03/06 21:33:33;;;;;;;;;19.50;15.00;;;;;;;;5131979;27;8790;-74
2024/03/06 21:35:58;;;;;;;;;17.50;13.00;;;;;;;;5131801;27;8777;-75
2024/03/06 21:38:25;;;;;;;;;15.50;15.50;;;;;;;;5113330;27;11503;-75
2024/03/06 21:40:50;;;;;;;;;19.00;18.50;;;;;;;;5115904;27;8803;-74
2024/03/06 21:43:15;;;;;;;;;15.50;15.50;;;;;;;;5140734;27;11413;-74
2024/03/06 21:45:40;;;;;;;;;21.75;21.00;;;;;;;;5131432;27;9503;-74
2024/03/06 21:48:07;;;;;;;;;19.50;19.25;;;;;;;;5131572;27;8813;-74
2024/03/06 21:50:33;;;;;;;;;19.50;16.25;;;;;;;;5131771;27;8800;-75
2024/03/06 21:53:00;;;;;;;;;17.50;17.50;;;;;;;;5131340;27;11438;-73
2024/03/06 21:55:26;;;;;;;;;21.50;17.75;;;;;;;;5131638;27;8766;-73
2024/03/06 21:57:51;;;;;;;;;16.00;16.00;;;;;;;;5130258;27;11574;-73
2024/03/06 22:00:18;;;;;;;;;18.50;17.50;;;;;;;;5109614;27;8794;-73
2024/03/06 22:02:43;;;;;;;;;22.00;21.50;;;;;;;;5131144;27;8846;-73
2024/03/06 22:05:08;;;;;;;;;19.50;19.00;;;;;;;;5131409;27;11427;-74
2024/03/06 22:07:34;;;;;;;;;24.25;18.00;;;;;;;;5131548;27;8914;-74
2024/03/06 22:09:59;;;;;;;;;20.75;20.50;;;;;;;;5131334;27;8901;-75
2024/03/06 22:12:24;;;;;;;;;20.25;16.75;;;;;;;;5131439;27;8782;-74
2024/03/06 22:14:50;;;;;;;;;20.00;17.00;;;;;;;;5112973;27;9561;-74
2024/03/06 22:17:15;;;;;;;;;15.25;15.25;;;;;;;;5130990;27;8818;-74
2024/03/06 22:19:41;;;;;;;;;19.50;16.25;;;;;;;;5131362;27;9483;-74
2024/03/06 22:22:06;;;;;;;;;23.00;18.50;;;;;;;;5131326;27;9606;-73
2024/03/06 22:24:31;;;;;;;;;16.00;15.00;;;;;;;;5131347;27;8766;-74
2024/03/06 22:26:57;;;;;;;;;23.50;19.00;;;;;;;;5142065;27;8799;-74
2024/03/06 22:29:22;;;;;;;;;18.67;17.33;;;;;;;;5132018;27;9495;-74
2024/03/06 22:31:50;;;;;;;;;1.33;0.00;;;;;;;;5131356;27;8774;-74
2024/03/06 22:34:15;;;;;;;;;20.50;16.75;;;;;;;;5130953;27;8778;-74
2024/03/06 22:36:41;;;;;;;;;18.50;16.75;;;;;;;;5131234;27;11431;-76
2024/03/06 22:39:06;;;;;;;;;17.25;13.00;;;;;;;;5131658;27;8821;-85
2024/03/06 22:41:31;;;;;;;;;23.67;16.00;;;;;;;;5131901;27;8762;-75
2024/03/06 22:43:57;;;;;;;;;16.00;15.00;;;;;;;;5112939;27;8794;-71
2024/03/06 22:46:25;;;;;;;;;22.67;19.33;;;;;;;;5131119;27;8797;-73
2024/03/06 22:48:50;;;;;;;;;16.00;16.00;;;;;;;;5130980;27;8805;-74
2024/03/06 22:51:17;;;;;;;;;15.33;15.33;;;;;;;;5131188;27;12190;-71
2024/03/06 22:53:42;;;;;;;;;15.67;15.67;;;;;;;;5131408;27;8800;-79
2024/03/06 22:56:07;;;;;;;;;19.00;17.00;;;;;;;;5131151;27;11422;-76
2024/03/06 22:58:34;;;;;;;;;17.33;16.00;;;;;;;;5131142;27;8817;-76
2024/03/06 23:00:59;;;;;;;;;17.33;15.00;;;;;;;;5131132;27;9483;-76
2024/03/06 23:03:24;;;;;;;;;18.33;17.00;;;;;;;;5130896;27;11468;-77
2024/03/06 23:05:50;;;;;;;;;16.67;15.00;;;;;;;;5134609;27;8876;-77
2024/03/06 23:08:15;;;;;;;;;15.33;13.00;;;;;;;;5135524;27;9545;-76
2024/03/06 23:10:41;;;;;;;;;17.67;16.33;;;;;;;;5134997;27;8766;-77
2024/03/06 23:13:17;;;;;;;;;16.00;16.00;;;;;;;;5135062;27;8773;-77
